sensor_id;sensor_type;location;lat;lon;timestamp;P1;durP1;ratioP1;P2;durP2;ratioP2
13331;SDS011;6735;51.456;12.626;2023-05-16T00:00:35;17.00;;;15.47;;
13331;SDS011;6735;51.456;12.626;2023-05-16T00:03:01;17.23;;;15.67;;
13331;SDS011;6735;51.456;12.626;2023-05-16T00:05:29;17.73;;;16.03;;
13331;SDS011;6735;51.456;12.626;2023-05-16T00:07:55;16.57;;;15.07;;
13331;SDS011;6735;51.456;12.626;2023-05-16T00:10:20;17.50;;;15.90;;
13331;SDS011;6735;51.456;12.626;2023-05-16T00:12:46;17.50;;;16.07;;
13331;SDS011;6735;51.456;12.626;2023-05-16T00:15:15;18.53;;;16.83;;
13331;SDS011;6735;51.456;12.626;2023-05-16T00:17:41;17.30;;;15.80;;
13331;SDS011;6735;51.456;12.626;2023-05-16T00:20:10;17.23;;;15.53;;
13331;SDS011;6735;51.456;12.626;2023-05-16T00:22:38;16.20;;;14.90;;
13331;SDS011;6735;51.456;12.626;2023-05-16T00:25:04;18.53;;;16.80;;
13331;SDS011;6735;51.456;12.626;2023-05-16T00:27:32;17.47;;;15.90;;
13331;SDS011;6735;51.456;12.626;2023-05-16T00:29:58;16.17;;;14.97;;
13331;SDS011;6735;51.456;12.626;2023-05-16T00:32:25;17.87;;;16.20;;
13331;SDS011;6735;51.456;12.626;2023-05-16T00:34:51;17.13;;;15.63;;
13331;SDS011;6735;51.456;12.626;2023-05-16T00:37:16;17.03;;;15.73;;
13331;SDS011;6735;51.456;12.626;2023-05-16T00:39:42;17.43;;;15.73;;
13331;SDS011;6735;51.456;12.626;2023-05-16T00:42:07;17.73;;;16.23;;
13331;SDS011;6735;51.456;12.626;2023-05-16T00:44:33;17.87;;;16.33;;
13331;SDS011;6735;51.456;12.626;2023-05-16T00:46:58;17.33;;;16.00;;
13331;SDS011;6735;51.456;12.626;2023-05-16T00:49:26;17.47;;;15.97;;
13331;SDS011;6735;51.456;12.626;2023-05-16T00:51:52;18.20;;;16.70;;
13331;SDS011;6735;51.456;12.626;2023-05-16T00:54:19;17.77;;;16.27;;
13331;SDS011;6735;51.456;12.626;2023-05-16T00:56:47;16.57;;;15.20;;
13331;SDS011;6735;51.456;12.626;2023-05-16T00:59:13;17.43;;;15.93;;
13331;SDS011;6735;51.456;12.626;2023-05-16T01:01:39;17.87;;;16.27;;
13331;SDS011;6735;51.456;12.626;2023-05-16T01:04:05;17.17;;;15.67;;
13331;SDS011;6735;51.456;12.626;2023-05-16T01:06:31;16.60;;;15.10;;
13331;SDS011;6735;51.456;12.626;2023-05-16T01:08:58;16.90;;;15.40;;
13331;SDS011;6735;51.456;12.626;2023-05-16T01:11:35;17.07;;;15.67;;
13331;SDS011;6735;51.456;12.626;2023-05-16T01:14:18;18.33;;;16.73;;
13331;SDS011;6735;51.456;12.626;2023-05-16T01:17:28;17.57;;;15.80;;
13331;SDS011;6735;51.456;12.626;2023-05-16T01:20:08;18.13;;;16.60;;
13331;SDS011;6735;51.456;12.626;2023-05-16T01:22:51;18.63;;;16.73;;
13331;SDS011;6735;51.456;12.626;2023-05-16T01:25:38;17.87;;;16.03;;
13331;SDS011;6735;51.456;12.626;2023-05-16T01:28:23;17.97;;;16.47;;
13331;SDS011;6735;51.456;12.626;2023-05-16T01:30:50;17.33;;;15.97;;
13331;SDS011;6735;51.456;12.626;2023-05-16T01:33:15;17.63;;;16.23;;
13331;SDS011;6735;51.456;12.626;2023-05-16T01:35:43;17.43;;;15.67;;
13331;SDS011;6735;51.456;12.626;2023-05-16T01:38:23;18.70;;;17.07;;
13331;SDS011;6735;51.456;12.626;2023-05-16T01:40:52;18.33;;;16.63;;
13331;SDS011;6735;51.456;12.626;2023-05-16T01:43:38;19.57;;;16.43;;
13331;SDS011;6735;51.456;12.626;2023-05-16T01:46:13;18.00;;;16.40;;
13331;SDS011;6735;51.456;12.626;2023-05-16T01:48:51;18.33;;;16.53;;
13331;SDS011;6735;51.456;12.626;2023-05-16T01:51:21;19.37;;;17.47;;
13331;SDS011;6735;51.456;12.626;2023-05-16T01:53:50;18.70;;;17.00;;
13331;SDS011;6735;51.456;12.626;2023-05-16T01:56:17;17.67;;;16.07;;
13331;SDS011;6735;51.456;12.626;2023-05-16T01:58:43;18.03;;;16.53;;
13331;SDS011;6735;51.456;12.626;2023-05-16T02:01:11;18.70;;;16.83;;
13331;SDS011;6735;51.456;12.626;2023-05-16T02:03:37;18.93;;;16.80;;
13331;SDS011;6735;51.456;12.626;2023-05-16T02:06:02;19.50;;;17.60;;
13331;SDS011;6735;51.456;12.626;2023-05-16T02:08:28;19.60;;;17.87;;
13331;SDS011;6735;51.456;12.626;2023-05-16T02:10:55;18.87;;;17.00;;
13331;SDS011;6735;51.456;12.626;2023-05-16T02:13:20;18.37;;;16.57;;
13331;SDS011;6735;51.456;12.626;2023-05-16T02:15:46;19.00;;;17.23;;
13331;SDS011;6735;51.456;12.626;2023-05-16T02:18:11;18.57;;;16.77;;
13331;SDS011;6735;51.456;12.626;2023-05-16T02:20:37;20.00;;;18.07;;
13331;SDS011;6735;51.456;12.626;2023-05-16T02:23:03;19.63;;;17.73;;
13331;SDS011;6735;51.456;12.626;2023-05-16T02:25:29;20.67;;;18.67;;
13331;SDS011;6735;51.456;12.626;2023-05-16T02:27:54;22.03;;;19.70;;
13331;SDS011;6735;51.456;12.626;2023-05-16T02:30:20;19.83;;;18.13;;
13331;SDS011;6735;51.456;12.626;2023-05-16T02:32:45;20.50;;;18.50;;
13331;SDS011;6735;51.456;12.626;2023-05-16T02:35:12;20.97;;;18.83;;
13331;SDS011;6735;51.456;12.626;2023-05-16T02:37:38;22.47;;;20.43;;
13331;SDS011;6735;51.456;12.626;2023-05-16T02:40:04;23.50;;;21.13;;
13331;SDS011;6735;51.456;12.626;2023-05-16T02:42:31;24.80;;;22.40;;
13331;SDS011;6735;51.456;12.626;2023-05-16T02:44:57;24.63;;;22.33;;
13331;SDS011;6735;51.456;12.626;2023-05-16T02:47:22;24.57;;;22.33;;
13331;SDS011;6735;51.456;12.626;2023-05-16T02:49:48;24.33;;;22.13;;
13331;SDS011;6735;51.456;12.626;2023-05-16T02:52:13;25.13;;;22.93;;
13331;SDS011;6735;51.456;12.626;2023-05-16T02:54:39;24.77;;;22.27;;
13331;SDS011;6735;51.456;12.626;2023-05-16T02:57:04;24.90;;;22.50;;
13331;SDS011;6735;51.456;12.626;2023-05-16T02:59:30;26.17;;;23.67;;
13331;SDS011;6735;51.456;12.626;2023-05-16T03:01:55;25.60;;;23.10;;
13331;SDS011;6735;51.456;12.626;2023-05-16T03:04:21;24.87;;;22.47;;
13331;SDS011;6735;51.456;12.626;2023-05-16T03:06:47;24.77;;;22.43;;
13331;SDS011;6735;51.456;12.626;2023-05-16T03:09:13;24.93;;;22.63;;
13331;SDS011;6735;51.456;12.626;2023-05-16T03:11:38;23.70;;;21.37;;
13331;SDS011;6735;51.456;12.626;2023-05-16T03:14:04;22.67;;;20.57;;
13331;SDS011;6735;51.456;12.626;2023-05-16T03:16:29;22.37;;;20.07;;
13331;SDS011;6735;51.456;12.626;2023-05-16T03:18:55;21.77;;;19.63;;
13331;SDS011;6735;51.456;12.626;2023-05-16T03:21:21;21.97;;;20.07;;
13331;SDS011;6735;51.456;12.626;2023-05-16T03:23:46;23.07;;;20.87;;
13331;SDS011;6735;51.456;12.626;2023-05-16T03:26:11;22.53;;;20.43;;
13331;SDS011;6735;51.456;12.626;2023-05-16T03:28:37;23.13;;;20.93;;
13331;SDS011;6735;51.456;12.626;2023-05-16T03:31:02;22.10;;;19.87;;
13331;SDS011;6735;51.456;12.626;2023-05-16T03:33:28;22.23;;;20.17;;
13331;SDS011;6735;51.456;12.626;2023-05-16T03:35:53;22.67;;;20.67;;
13331;SDS011;6735;51.456;12.626;2023-05-16T03:38:19;24.33;;;22.03;;
13331;SDS011;6735;51.456;12.626;2023-05-16T03:40:45;26.90;;;24.57;;
13331;SDS011;6735;51.456;12.626;2023-05-16T03:43:10;25.07;;;22.67;;
13331;SDS011;6735;51.456;12.626;2023-05-16T03:45:36;25.00;;;22.70;;
13331;SDS011;6735;51.456;12.626;2023-05-16T03:48:01;21.90;;;19.93;;
13331;SDS011;6735;51.456;12.626;2023-05-16T03:50:27;22.73;;;20.53;;
13331;SDS011;6735;51.456;12.626;2023-05-16T03:52:52;20.30;;;18.60;;
13331;SDS011;6735;51.456;12.626;2023-05-16T03:55:18;19.63;;;17.83;;
13331;SDS011;6735;51.456;12.626;2023-05-16T03:57:45;18.73;;;17.03;;
13331;SDS011;6735;51.456;12.626;2023-05-16T04:00:11;18.57;;;15.83;;
13331;SDS011;6735;51.456;12.626;2023-05-16T04:02:38;18.67;;;16.97;;
13331;SDS011;6735;51.456;12.626;2023-05-16T04:05:08;18.00;;;16.33;;
13331;SDS011;6735;51.456;12.626;2023-05-16T04:07:34;18.77;;;17.20;;
13331;SDS011;6735;51.456;12.626;2023-05-16T04:10:00;17.53;;;15.93;;
13331;SDS011;6735;51.456;12.626;2023-05-16T04:12:25;19.20;;;17.20;;
13331;SDS011;6735;51.456;12.626;2023-05-16T04:14:51;17.17;;;15.57;;
13331;SDS011;6735;51.456;12.626;2023-05-16T04:17:16;17.37;;;15.87;;
13331;SDS011;6735;51.456;12.626;2023-05-16T04:19:41;16.60;;;15.20;;
13331;SDS011;6735;51.456;12.626;2023-05-16T04:22:07;17.43;;;15.83;;
13331;SDS011;6735;51.456;12.626;2023-05-16T04:24:32;17.60;;;15.80;;
13331;SDS011;6735;51.456;12.626;2023-05-16T04:26:58;17.40;;;16.00;;
13331;SDS011;6735;51.456;12.626;2023-05-16T04:29:23;15.87;;;14.47;;
13331;SDS011;6735;51.456;12.626;2023-05-16T04:31:49;16.03;;;14.57;;
13331;SDS011;6735;51.456;12.626;2023-05-16T04:34:15;16.33;;;14.73;;
13331;SDS011;6735;51.456;12.626;2023-05-16T04:36:40;15.43;;;14.03;;
13331;SDS011;6735;51.456;12.626;2023-05-16T04:39:06;15.83;;;14.33;;
13331;SDS011;6735;51.456;12.626;2023-05-16T04:41:35;16.17;;;14.70;;
13331;SDS011;6735;51.456;12.626;2023-05-16T04:44:01;15.90;;;14.27;;
13331;SDS011;6735;51.456;12.626;2023-05-16T04:46:30;15.50;;;14.00;;
13331;SDS011;6735;51.456;12.626;2023-05-16T04:48:55;15.47;;;13.93;;
13331;SDS011;6735;51.456;12.626;2023-05-16T04:51:21;13.87;;;12.53;;
13331;SDS011;6735;51.456;12.626;2023-05-16T04:53:47;14.53;;;13.03;;
13331;SDS011;6735;51.456;12.626;2023-05-16T04:56:12;14.07;;;12.73;;
13331;SDS011;6735;51.456;12.626;2023-05-16T04:58:38;13.90;;;12.53;;
13331;SDS011;6735;51.456;12.626;2023-05-16T05:01:03;13.40;;;12.03;;
13331;SDS011;6735;51.456;12.626;2023-05-16T05:03:29;12.73;;;11.53;;
13331;SDS011;6735;51.456;12.626;2023-05-16T05:05:54;12.43;;;11.17;;
13331;SDS011;6735;51.456;12.626;2023-05-16T05:08:20;11.47;;;10.37;;
13331;SDS011;6735;51.456;12.626;2023-05-16T05:10:46;11.37;;;10.23;;
13331;SDS011;6735;51.456;12.626;2023-05-16T05:13:11;10.57;;;9.60;;
13331;SDS011;6735;51.456;12.626;2023-05-16T05:15:37;10.23;;;9.33;;
13331;SDS011;6735;51.456;12.626;2023-05-16T05:18:02;10.70;;;9.00;;
13331;SDS011;6735;51.456;12.626;2023-05-16T05:20:28;11.00;;;9.43;;
13331;SDS011;6735;51.456;12.626;2023-05-16T05:22:53;10.10;;;9.30;;
13331;SDS011;6735;51.456;12.626;2023-05-16T05:25:19;10.13;;;9.20;;
13331;SDS011;6735;51.456;12.626;2023-05-16T05:27:44;9.80;;;8.90;;
13331;SDS011;6735;51.456;12.626;2023-05-16T05:30:10;9.20;;;8.43;;
13331;SDS011;6735;51.456;12.626;2023-05-16T05:32:36;10.20;;;9.27;;
13331;SDS011;6735;51.456;12.626;2023-05-16T05:35:02;9.77;;;8.90;;
13331;SDS011;6735;51.456;12.626;2023-05-16T05:37:27;10.83;;;9.40;;
13331;SDS011;6735;51.456;12.626;2023-05-16T05:39:53;10.07;;;9.17;;
13331;SDS011;6735;51.456;12.626;2023-05-16T05:42:19;10.17;;;9.13;;
13331;SDS011;6735;51.456;12.626;2023-05-16T05:44:45;9.77;;;8.97;;
13331;SDS011;6735;51.456;12.626;2023-05-16T05:47:10;9.50;;;8.67;;
13331;SDS011;6735;51.456;12.626;2023-05-16T05:49:36;9.70;;;8.80;;
13331;SDS011;6735;51.456;12.626;2023-05-16T05:52:02;9.87;;;8.90;;
13331;SDS011;6735;51.456;12.626;2023-05-16T05:54:27;10.10;;;9.10;;
13331;SDS011;6735;51.456;12.626;2023-05-16T05:56:53;8.93;;;8.23;;
13331;SDS011;6735;51.456;12.626;2023-05-16T05:59:19;9.60;;;8.77;;
13331;SDS011;6735;51.456;12.626;2023-05-16T06:01:44;9.57;;;8.33;;
13331;SDS011;6735;51.456;12.626;2023-05-16T06:04:10;9.97;;;8.97;;
13331;SDS011;6735;51.456;12.626;2023-05-16T06:06:36;8.80;;;8.00;;
13331;SDS011;6735;51.456;12.626;2023-05-16T06:09:02;8.87;;;8.17;;
13331;SDS011;6735;51.456;12.626;2023-05-16T06:11:27;9.17;;;8.37;;
13331;SDS011;6735;51.456;12.626;2023-05-16T06:13:53;9.13;;;8.27;;
13331;SDS011;6735;51.456;12.626;2023-05-16T06:16:18;8.43;;;7.73;;
13331;SDS011;6735;51.456;12.626;2023-05-16T06:18:48;8.57;;;7.97;;
13331;SDS011;6735;51.456;12.626;2023-05-16T06:21:13;8.57;;;7.77;;
13331;SDS011;6735;51.456;12.626;2023-05-16T06:23:39;9.20;;;8.30;;
13331;SDS011;6735;51.456;12.626;2023-05-16T06:26:04;9.00;;;8.20;;
13331;SDS011;6735;51.456;12.626;2023-05-16T06:28:30;9.37;;;8.47;;
13331;SDS011;6735;51.456;12.626;2023-05-16T06:30:55;11.50;;;8.80;;
13331;SDS011;6735;51.456;12.626;2023-05-16T06:33:21;9.33;;;8.43;;
13331;SDS011;6735;51.456;12.626;2023-05-16T06:35:46;9.47;;;8.57;;
13331;SDS011;6735;51.456;12.626;2023-05-16T06:38:13;9.60;;;8.03;;
13331;SDS011;6735;51.456;12.626;2023-05-16T06:40:39;8.80;;;7.90;;
13331;SDS011;6735;51.456;12.626;2023-05-16T06:43:04;9.53;;;7.53;;
13331;SDS011;6735;51.456;12.626;2023-05-16T06:45:30;7.83;;;7.13;;
13331;SDS011;6735;51.456;12.626;2023-05-16T06:47:55;8.07;;;7.33;;
13331;SDS011;6735;51.456;12.626;2023-05-16T06:50:21;8.63;;;7.00;;
13331;SDS011;6735;51.456;12.626;2023-05-16T06:52:46;7.17;;;6.57;;
13331;SDS011;6735;51.456;12.626;2023-05-16T06:55:12;7.47;;;6.73;;
13331;SDS011;6735;51.456;12.626;2023-05-16T06:57:37;8.70;;;6.40;;
13331;SDS011;6735;51.456;12.626;2023-05-16T07:00:03;6.73;;;6.13;;
13331;SDS011;6735;51.456;12.626;2023-05-16T07:02:29;7.47;;;6.83;;
13331;SDS011;6735;51.456;12.626;2023-05-16T07:04:55;7.20;;;6.57;;
13331;SDS011;6735;51.456;12.626;2023-05-16T07:07:20;7.20;;;6.20;;
13331;SDS011;6735;51.456;12.626;2023-05-16T07:09:46;6.80;;;6.10;;
13331;SDS011;6735;51.456;12.626;2023-05-16T07:12:11;6.60;;;6.10;;
13331;SDS011;6735;51.456;12.626;2023-05-16T07:14:37;7.00;;;6.30;;
13331;SDS011;6735;51.456;12.626;2023-05-16T07:17:02;7.80;;;6.80;;
13331;SDS011;6735;51.456;12.626;2023-05-16T07:19:28;8.03;;;6.50;;
13331;SDS011;6735;51.456;12.626;2023-05-16T07:21:54;6.60;;;6.00;;
13331;SDS011;6735;51.456;12.626;2023-05-16T07:24:19;6.77;;;6.10;;
13331;SDS011;6735;51.456;12.626;2023-05-16T07:26:45;7.30;;;6.03;;
13331;SDS011;6735;51.456;12.626;2023-05-16T07:29:10;7.33;;;6.13;;
13331;SDS011;6735;51.456;12.626;2023-05-16T07:31:36;11.17;;;5.97;;
13331;SDS011;6735;51.456;12.626;2023-05-16T07:34:01;6.17;;;5.67;;
13331;SDS011;6735;51.456;12.626;2023-05-16T07:36:27;6.73;;;6.00;;
13331;SDS011;6735;51.456;12.626;2023-05-16T07:38:52;6.23;;;5.70;;
13331;SDS011;6735;51.456;12.626;2023-05-16T07:41:18;6.40;;;5.83;;
13331;SDS011;6735;51.456;12.626;2023-05-16T07:43:43;7.00;;;6.30;;
13331;SDS011;6735;51.456;12.626;2023-05-16T07:46:09;6.73;;;5.73;;
13331;SDS011;6735;51.456;12.626;2023-05-16T07:48:35;5.97;;;5.47;;
13331;SDS011;6735;51.456;12.626;2023-05-16T07:51:01;6.63;;;5.47;;
13331;SDS011;6735;51.456;12.626;2023-05-16T07:53:26;8.67;;;5.40;;
13331;SDS011;6735;51.456;12.626;2023-05-16T07:55:52;9.93;;;5.80;;
13331;SDS011;6735;51.456;12.626;2023-05-16T07:58:17;5.87;;;5.27;;
13331;SDS011;6735;51.456;12.626;2023-05-16T08:00:43;5.93;;;5.40;;
13331;SDS011;6735;51.456;12.626;2023-05-16T08:03:09;6.87;;;5.87;;
13331;SDS011;6735;51.456;12.626;2023-05-16T08:05:35;8.00;;;5.20;;
13331;SDS011;6735;51.456;12.626;2023-05-16T08:08:00;7.77;;;5.13;;
13331;SDS011;6735;51.456;12.626;2023-05-16T08:10:25;6.50;;;5.20;;
13331;SDS011;6735;51.456;12.626;2023-05-16T08:12:51;5.17;;;4.67;;
13331;SDS011;6735;51.456;12.626;2023-05-16T08:15:17;6.47;;;5.10;;
13331;SDS011;6735;51.456;12.626;2023-05-16T08:17:43;6.43;;;5.10;;
13331;SDS011;6735;51.456;12.626;2023-05-16T08:20:08;5.03;;;4.57;;
13331;SDS011;6735;51.456;12.626;2023-05-16T08:22:35;5.53;;;4.67;;
13331;SDS011;6735;51.456;12.626;2023-05-16T08:25:00;6.03;;;4.57;;
13331;SDS011;6735;51.456;12.626;2023-05-16T08:27:26;6.70;;;4.47;;
13331;SDS011;6735;51.456;12.626;2023-05-16T08:29:52;5.87;;;4.17;;
13331;SDS011;6735;51.456;12.626;2023-05-16T08:32:18;5.60;;;4.03;;
13331;SDS011;6735;51.456;12.626;2023-05-16T08:34:43;8.27;;;4.20;;
13331;SDS011;6735;51.456;12.626;2023-05-16T08:37:09;5.27;;;4.03;;
13331;SDS011;6735;51.456;12.626;2023-05-16T08:39:34;5.53;;;4.40;;
13331;SDS011;6735;51.456;12.626;2023-05-16T08:42:02;7.13;;;4.40;;
13331;SDS011;6735;51.456;12.626;2023-05-16T08:44:29;6.70;;;4.17;;
13331;SDS011;6735;51.456;12.626;2023-05-16T08:46:54;8.17;;;4.47;;
13331;SDS011;6735;51.456;12.626;2023-05-16T08:49:21;4.97;;;4.10;;
13331;SDS011;6735;51.456;12.626;2023-05-16T08:51:50;4.33;;;3.93;;
13331;SDS011;6735;51.456;12.626;2023-05-16T08:54:20;4.20;;;3.80;;
13331;SDS011;6735;51.456;12.626;2023-05-16T08:56:46;4.63;;;4.10;;
13331;SDS011;6735;51.456;12.626;2023-05-16T08:59:14;4.83;;;3.77;;
13331;SDS011;6735;51.456;12.626;2023-05-16T09:01:40;4.10;;;3.80;;
13331;SDS011;6735;51.456;12.626;2023-05-16T09:04:06;4.67;;;3.77;;
13331;SDS011;6735;51.456;12.626;2023-05-16T09:06:33;5.83;;;3.80;;
13331;SDS011;6735;51.456;12.626;2023-05-16T09:09:02;4.67;;;3.70;;
13331;SDS011;6735;51.456;12.626;2023-05-16T09:11:28;5.50;;;3.70;;
13331;SDS011;6735;51.456;12.626;2023-05-16T09:13:54;3.93;;;3.60;;
13331;SDS011;6735;51.456;12.626;2023-05-16T09:16:19;3.97;;;3.57;;
13331;SDS011;6735;51.456;12.626;2023-05-16T09:19:06;4.57;;;3.70;;
13331;SDS011;6735;51.456;12.626;2023-05-16T09:21:33;3.63;;;3.33;;
13331;SDS011;6735;51.456;12.626;2023-05-16T09:24:02;5.17;;;3.70;;
13331;SDS011;6735;51.456;12.626;2023-05-16T09:26:28;4.03;;;3.43;;
13331;SDS011;6735;51.456;12.626;2023-05-16T09:28:55;4.30;;;3.40;;
13331;SDS011;6735;51.456;12.626;2023-05-16T09:31:21;6.43;;;3.90;;
13331;SDS011;6735;51.456;12.626;2023-05-16T09:33:50;4.20;;;3.80;;
13331;SDS011;6735;51.456;12.626;2023-05-16T09:36:16;6.07;;;3.77;;
13331;SDS011;6735;51.456;12.626;2023-05-16T09:38:42;5.37;;;3.50;;
13331;SDS011;6735;51.456;12.626;2023-05-16T09:41:09;5.57;;;3.80;;
13331;SDS011;6735;51.456;12.626;2023-05-16T09:43:36;4.03;;;3.60;;
13331;SDS011;6735;51.456;12.626;2023-05-16T09:46:06;3.73;;;3.43;;
13331;SDS011;6735;51.456;12.626;2023-05-16T09:48:32;3.90;;;3.50;;
13331;SDS011;6735;51.456;12.626;2023-05-16T09:50:58;3.60;;;3.30;;
13331;SDS011;6735;51.456;12.626;2023-05-16T09:53:29;4.97;;;3.37;;
13331;SDS011;6735;51.456;12.626;2023-05-16T09:56:03;3.43;;;3.13;;
13331;SDS011;6735;51.456;12.626;2023-05-16T09:58:31;4.03;;;3.10;;
13331;SDS011;6735;51.456;12.626;2023-05-16T10:01:01;6.20;;;3.40;;
13331;SDS011;6735;51.456;12.626;2023-05-16T10:03:28;4.87;;;3.50;;
13331;SDS011;6735;51.456;12.626;2023-05-16T10:05:53;4.33;;;3.50;;
13331;SDS011;6735;51.456;12.626;2023-05-16T10:08:20;4.40;;;4.00;;
13331;SDS011;6735;51.456;12.626;2023-05-16T10:10:47;4.30;;;3.17;;
13331;SDS011;6735;51.456;12.626;2023-05-16T10:13:17;3.17;;;2.87;;
13331;SDS011;6735;51.456;12.626;2023-05-16T10:15:44;3.53;;;3.00;;
13331;SDS011;6735;51.456;12.626;2023-05-16T10:18:12;3.73;;;2.87;;
13331;SDS011;6735;51.456;12.626;2023-05-16T10:20:39;8.17;;;3.13;;
13331;SDS011;6735;51.456;12.626;2023-05-16T10:23:06;5.57;;;3.33;;
13331;SDS011;6735;51.456;12.626;2023-05-16T10:25:39;3.60;;;3.00;;
13331;SDS011;6735;51.456;12.626;2023-05-16T10:28:06;6.10;;;3.40;;
13331;SDS011;6735;51.456;12.626;2023-05-16T10:30:33;5.10;;;3.17;;
13331;SDS011;6735;51.456;12.626;2023-05-16T10:33:00;8.30;;;3.20;;
13331;SDS011;6735;51.456;12.626;2023-05-16T10:35:27;4.83;;;2.73;;
13331;SDS011;6735;51.456;12.626;2023-05-16T10:37:52;6.63;;;3.10;;
13331;SDS011;6735;51.456;12.626;2023-05-16T10:40:19;6.57;;;2.70;;
13331;SDS011;6735;51.456;12.626;2023-05-16T10:42:55;3.17;;;2.83;;
13331;SDS011;6735;51.456;12.626;2023-05-16T10:45:21;3.73;;;2.87;;
13331;SDS011;6735;51.456;12.626;2023-05-16T10:48:00;7.07;;;4.33;;
13331;SDS011;6735;51.456;12.626;2023-05-16T10:50:41;4.80;;;3.60;;
13331;SDS011;6735;51.456;12.626;2023-05-16T10:53:11;6.27;;;3.40;;
13331;SDS011;6735;51.456;12.626;2023-05-16T10:55:44;3.67;;;2.83;;
13331;SDS011;6735;51.456;12.626;2023-05-16T11:03:59;7.37;;;3.13;;
13331;SDS011;6735;51.456;12.626;2023-05-16T11:06:34;3.70;;;2.80;;
13331;SDS011;6735;51.456;12.626;2023-05-16T11:19:40;9.10;;;3.60;;
13331;SDS011;6735;51.456;12.626;2023-05-16T11:24:49;6.13;;;2.90;;
13331;SDS011;6735;51.456;12.626;2023-05-16T11:27:29;4.73;;;2.60;;
13331;SDS011;6735;51.456;12.626;2023-05-16T11:32:32;7.13;;;2.50;;
13331;SDS011;6735;51.456;12.626;2023-05-16T11:34:59;7.30;;;2.60;;
13331;SDS011;6735;51.456;12.626;2023-05-16T11:37:26;6.93;;;3.33;;
13331;SDS011;6735;51.456;12.626;2023-05-16T11:39:51;5.53;;;2.70;;
13331;SDS011;6735;51.456;12.626;2023-05-16T11:42:18;8.47;;;2.67;;
13331;SDS011;6735;51.456;12.626;2023-05-16T11:44:43;5.63;;;2.90;;
13331;SDS011;6735;51.456;12.626;2023-05-16T11:47:09;8.37;;;3.07;;
13331;SDS011;6735;51.456;12.626;2023-05-16T11:49:36;6.37;;;2.67;;
13331;SDS011;6735;51.456;12.626;2023-05-16T11:52:02;9.13;;;2.80;;
13331;SDS011;6735;51.456;12.626;2023-05-16T11:54:28;7.53;;;2.90;;
13331;SDS011;6735;51.456;12.626;2023-05-16T11:56:54;13.77;;;4.90;;
13331;SDS011;6735;51.456;12.626;2023-05-16T11:59:19;10.00;;;3.10;;
13331;SDS011;6735;51.456;12.626;2023-05-16T12:01:45;10.47;;;3.50;;
13331;SDS011;6735;51.456;12.626;2023-05-16T12:04:14;7.87;;;2.80;;
13331;SDS011;6735;51.456;12.626;2023-05-16T12:06:41;11.17;;;3.00;;
13331;SDS011;6735;51.456;12.626;2023-05-16T12:09:11;5.60;;;2.63;;
13331;SDS011;6735;51.456;12.626;2023-05-16T12:11:38;6.87;;;2.93;;
13331;SDS011;6735;51.456;12.626;2023-05-16T12:14:06;9.67;;;3.17;;
13331;SDS011;6735;51.456;12.626;2023-05-16T12:16:33;5.60;;;2.60;;
13331;SDS011;6735;51.456;12.626;2023-05-16T12:19:00;8.20;;;3.07;;
13331;SDS011;6735;51.456;12.626;2023-05-16T12:21:28;7.17;;;2.63;;
13331;SDS011;6735;51.456;12.626;2023-05-16T12:23:55;9.87;;;3.17;;
13331;SDS011;6735;51.456;12.626;2023-05-16T12:26:23;7.20;;;3.00;;
13331;SDS011;6735;51.456;12.626;2023-05-16T12:28:52;8.07;;;2.87;;
13331;SDS011;6735;51.456;12.626;2023-05-16T12:31:20;6.43;;;2.70;;
13331;SDS011;6735;51.456;12.626;2023-05-16T12:33:45;5.10;;;2.63;;
13331;SDS011;6735;51.456;12.626;2023-05-16T12:36:14;4.60;;;2.43;;
13331;SDS011;6735;51.456;12.626;2023-05-16T12:38:40;9.00;;;3.00;;
13331;SDS011;6735;51.456;12.626;2023-05-16T12:41:09;5.20;;;2.80;;
13331;SDS011;6735;51.456;12.626;2023-05-16T12:43:35;6.37;;;3.10;;
13331;SDS011;6735;51.456;12.626;2023-05-16T12:46:00;8.30;;;3.40;;
13331;SDS011;6735;51.456;12.626;2023-05-16T12:48:32;6.97;;;2.63;;
13331;SDS011;6735;51.456;12.626;2023-05-16T12:51:12;6.57;;;2.50;;
13331;SDS011;6735;51.456;12.626;2023-05-16T12:56:09;9.60;;;2.97;;
13331;SDS011;6735;51.456;12.626;2023-05-16T12:58:35;7.43;;;2.80;;
13331;SDS011;6735;51.456;12.626;2023-05-16T13:01:01;7.63;;;2.63;;
13331;SDS011;6735;51.456;12.626;2023-05-16T13:03:27;9.10;;;3.07;;
13331;SDS011;6735;51.456;12.626;2023-05-16T13:05:53;7.43;;;2.77;;
13331;SDS011;6735;51.456;12.626;2023-05-16T13:08:18;7.47;;;2.80;;
13331;SDS011;6735;51.456;12.626;2023-05-16T13:10:44;10.70;;;3.27;;
13331;SDS011;6735;51.456;12.626;2023-05-16T13:13:09;7.80;;;3.10;;
13331;SDS011;6735;51.456;12.626;2023-05-16T13:15:35;9.40;;;2.70;;
13331;SDS011;6735;51.456;12.626;2023-05-16T13:18:02;11.17;;;3.40;;
13331;SDS011;6735;51.456;12.626;2023-05-16T13:20:27;9.60;;;2.80;;
13331;SDS011;6735;51.456;12.626;2023-05-16T13:22:53;7.03;;;2.80;;
13331;SDS011;6735;51.456;12.626;2023-05-16T13:25:19;11.00;;;2.97;;
13331;SDS011;6735;51.456;12.626;2023-05-16T13:27:45;6.33;;;2.93;;
13331;SDS011;6735;51.456;12.626;2023-05-16T13:30:13;8.20;;;3.10;;
13331;SDS011;6735;51.456;12.626;2023-05-16T13:32:38;7.33;;;3.00;;
13331;SDS011;6735;51.456;12.626;2023-05-16T13:35:05;8.07;;;2.70;;
13331;SDS011;6735;51.456;12.626;2023-05-16T13:37:31;6.87;;;2.57;;
13331;SDS011;6735;51.456;12.626;2023-05-16T13:39:56;8.07;;;2.97;;
13331;SDS011;6735;51.456;12.626;2023-05-16T13:42:22;8.80;;;2.80;;
13331;SDS011;6735;51.456;12.626;2023-05-16T13:44:47;8.07;;;2.90;;
13331;SDS011;6735;51.456;12.626;2023-05-16T13:47:13;6.17;;;2.70;;
13331;SDS011;6735;51.456;12.626;2023-05-16T13:49:38;7.77;;;2.70;;
13331;SDS011;6735;51.456;12.626;2023-05-16T13:52:04;6.07;;;2.70;;
13331;SDS011;6735;51.456;12.626;2023-05-16T13:54:30;6.33;;;2.50;;
13331;SDS011;6735;51.456;12.626;2023-05-16T13:56:55;7.70;;;2.53;;
13331;SDS011;6735;51.456;12.626;2023-05-16T13:59:21;7.37;;;2.67;;
13331;SDS011;6735;51.456;12.626;2023-05-16T14:01:47;6.93;;;2.40;;
13331;SDS011;6735;51.456;12.626;2023-05-16T14:04:12;4.47;;;2.33;;
13331;SDS011;6735;51.456;12.626;2023-05-16T14:06:38;6.17;;;2.37;;
13331;SDS011;6735;51.456;12.626;2023-05-16T14:09:03;7.50;;;2.43;;
13331;SDS011;6735;51.456;12.626;2023-05-16T14:11:29;7.37;;;2.47;;
13331;SDS011;6735;51.456;12.626;2023-05-16T14:13:55;6.97;;;2.57;;
13331;SDS011;6735;51.456;12.626;2023-05-16T14:16:21;5.43;;;2.27;;
13331;SDS011;6735;51.456;12.626;2023-05-16T14:18:47;5.43;;;2.23;;
13331;SDS011;6735;51.456;12.626;2023-05-16T14:21:12;7.00;;;2.60;;
13331;SDS011;6735;51.456;12.626;2023-05-16T14:23:38;6.80;;;2.50;;
13331;SDS011;6735;51.456;12.626;2023-05-16T14:26:04;6.93;;;2.40;;
13331;SDS011;6735;51.456;12.626;2023-05-16T14:28:29;7.33;;;2.30;;
13331;SDS011;6735;51.456;12.626;2023-05-16T14:30:56;6.47;;;2.67;;
13331;SDS011;6735;51.456;12.626;2023-05-16T14:33:26;6.53;;;2.90;;
13331;SDS011;6735;51.456;12.626;2023-05-16T14:35:52;6.70;;;2.20;;
13331;SDS011;6735;51.456;12.626;2023-05-16T14:38:17;5.60;;;2.27;;
13331;SDS011;6735;51.456;12.626;2023-05-16T14:40:43;4.43;;;2.10;;
13331;SDS011;6735;51.456;12.626;2023-05-16T14:43:09;5.40;;;2.10;;
13331;SDS011;6735;51.456;12.626;2023-05-16T14:45:35;5.30;;;2.20;;
13331;SDS011;6735;51.456;12.626;2023-05-16T14:48:02;4.27;;;2.07;;
13331;SDS011;6735;51.456;12.626;2023-05-16T14:50:27;6.57;;;2.33;;
13331;SDS011;6735;51.456;12.626;2023-05-16T14:52:53;6.90;;;2.40;;
13331;SDS011;6735;51.456;12.626;2023-05-16T14:55:19;5.53;;;2.10;;
13331;SDS011;6735;51.456;12.626;2023-05-16T14:57:44;4.20;;;2.20;;
13331;SDS011;6735;51.456;12.626;2023-05-16T15:00:11;5.20;;;2.07;;